sensor_id;sensor_type;location;lat;lon;timestamp;temperature;humidity
55331;DHT22;58851;42.984;20.336;2024-01-30T00:01:43;26.50;6451.20
55331;DHT22;58851;42.984;20.336;2024-01-30T00:04:09;26.50;6451.20
55331;DHT22;58851;42.984;20.336;2024-01-30T00:06:34;26.50;6451.20
55331;DHT22;58851;42.984;20.336;2024-01-30T00:09:00;26.50;6451.20
55331;DHT22;58851;42.984;20.336;2024-01-30T00:11:26;26.40;6451.20
55331;DHT22;58851;42.984;20.336;2024-01-30T00:13:53;26.30;6451.20
55331;DHT22;58851;42.984;20.336;2024-01-30T00:16:21;26.20;6451.20
55331;DHT22;58851;42.984;20.336;2024-01-30T00:18:47;26.20;6451.20
55331;DHT22;58851;42.984;20.336;2024-01-30T00:21:13;26.20;6451.20
55331;DHT22;58851;42.984;20.336;2024-01-30T00:23:39;26.20;6451.20
55331;DHT22;58851;42.984;20.336;2024-01-30T00:26:05;26.20;6451.20
55331;DHT22;58851;42.984;20.336;2024-01-30T00:28:32;26.30;6451.20
55331;DHT22;58851;42.984;20.336;2024-01-30T00:30:58;26.30;6451.20
55331;DHT22;58851;42.984;20.336;2024-01-30T00:33:24;26.30;6451.20
55331;DHT22;58851;42.984;20.336;2024-01-30T00:35:49;26.30;6451.20
55331;DHT22;58851;42.984;20.336;2024-01-30T00:38:15;26.30;6451.20
55331;DHT22;58851;42.984;20.336;2024-01-30T00:40:41;26.20;6451.20
55331;DHT22;58851;42.984;20.336;2024-01-30T00:43:07;26.20;6451.20
55331;DHT22;58851;42.984;20.336;2024-01-30T00:45:33;26.30;6451.20
55331;DHT22;58851;42.984;20.336;2024-01-30T00:47:59;26.10;6451.20
55331;DHT22;58851;42.984;20.336;2024-01-30T00:50:24;25.90;6451.20
55331;DHT22;58851;42.984;20.336;2024-01-30T00:52:50;25.80;6451.20
55331;DHT22;58851;42.984;20.336;2024-01-30T00:55:16;25.80;6451.20
55331;DHT22;58851;42.984;20.336;2024-01-30T00:57:42;25.70;6451.20
55331;DHT22;58851;42.984;20.336;2024-01-30T01:00:08;25.60;6451.20
55331;DHT22;58851;42.984;20.336;2024-01-30T01:02:37;0.80;6451.20
55331;DHT22;58851;42.984;20.336;2024-01-30T01:05:04;0.80;6451.20
55331;DHT22;58851;42.984;20.336;2024-01-30T01:07:30;0.80;6451.20
55331;DHT22;58851;42.984;20.336;2024-01-30T01:09:56;0.80;6451.20
55331;DHT22;58851;42.984;20.336;2024-01-30T01:12:24;0.80;6451.20
55331;DHT22;58851;42.984;20.336;2024-01-30T01:14:49;0.70;6451.20
55331;DHT22;58851;42.984;20.336;2024-01-30T01:17:15;0.70;6451.20
55331;DHT22;58851;42.984;20.336;2024-01-30T01:19:41;0.70;6451.20
55331;DHT22;58851;42.984;20.336;2024-01-30T01:22:07;0.80;6451.20
55331;DHT22;58851;42.984;20.336;2024-01-30T01:24:33;0.90;6451.20
55331;DHT22;58851;42.984;20.336;2024-01-30T01:26:59;25.60;6451.20
55331;DHT22;58851;42.984;20.336;2024-01-30T01:29:26;25.80;6451.20
55331;DHT22;58851;42.984;20.336;2024-01-30T01:31:55;25.90;6451.20
55331;DHT22;58851;42.984;20.336;2024-01-30T01:34:21;25.80;6451.20
55331;DHT22;58851;42.984;20.336;2024-01-30T01:36:47;25.80;6451.20
55331;DHT22;58851;42.984;20.336;2024-01-30T01:39:13;25.80;6451.20
55331;DHT22;58851;42.984;20.336;2024-01-30T01:41:39;25.90;6451.20
55331;DHT22;58851;42.984;20.336;2024-01-30T01:44:05;25.90;6451.20
55331;DHT22;58851;42.984;20.336;2024-01-30T01:46:33;25.70;6451.20
55331;DHT22;58851;42.984;20.336;2024-01-30T01:49:00;25.80;6451.20
55331;DHT22;58851;42.984;20.336;2024-01-30T01:51:28;25.80;6451.20
55331;DHT22;58851;42.984;20.336;2024-01-30T01:53:55;25.70;6451.20
55331;DHT22;58851;42.984;20.336;2024-01-30T01:56:23;0.90;6451.20
55331;DHT22;58851;42.984;20.336;2024-01-30T01:58:50;0.90;6451.20
55331;DHT22;58851;42.984;20.336;2024-01-30T02:01:19;0.90;6451.20
55331;DHT22;58851;42.984;20.336;2024-01-30T02:03:46;0.90;6451.20
55331;DHT22;58851;42.984;20.336;2024-01-30T02:06:13;0.90;6451.20
55331;DHT22;58851;42.984;20.336;2024-01-30T02:08:39;25.60;6451.20
55331;DHT22;58851;42.984;20.336;2024-01-30T02:11:05;25.60;6451.20
55331;DHT22;58851;42.984;20.336;2024-01-30T02:13:31;25.60;6451.20
55331;DHT22;58851;42.984;20.336;2024-01-30T02:15:56;0.90;6451.20
55331;DHT22;58851;42.984;20.336;2024-01-30T02:18:22;0.90;6451.20
55331;DHT22;58851;42.984;20.336;2024-01-30T02:20:48;25.60;6451.20
55331;DHT22;58851;42.984;20.336;2024-01-30T02:23:16;25.60;6451.20
55331;DHT22;58851;42.984;20.336;2024-01-30T02:25:43;0.90;6451.20
55331;DHT22;58851;42.984;20.336;2024-01-30T02:28:14;0.80;6451.20
55331;DHT22;58851;42.984;20.336;2024-01-30T02:30:42;0.80;6451.20
55331;DHT22;58851;42.984;20.336;2024-01-30T02:33:08;0.80;6451.20
55331;DHT22;58851;42.984;20.336;2024-01-30T02:35:34;0.90;6451.20
55331;DHT22;58851;42.984;20.336;2024-01-30T02:38:00;0.90;6451.20
55331;DHT22;58851;42.984;20.336;2024-01-30T02:40:25;0.90;6451.20
55331;DHT22;58851;42.984;20.336;2024-01-30T02:42:51;0.90;6451.20
55331;DHT22;58851;42.984;20.336;2024-01-30T02:45:17;0.80;6451.20
55331;DHT22;58851;42.984;20.336;2024-01-30T02:47:43;0.60;6451.20
55331;DHT22;58851;42.984;20.336;2024-01-30T02:50:09;0.60;6451.20
55331;DHT22;58851;42.984;20.336;2024-01-30T02:52:35;0.60;6451.20
55331;DHT22;58851;42.984;20.336;2024-01-30T02:55:01;0.60;6451.20
55331;DHT22;58851;42.984;20.336;2024-01-30T02:57:28;0.50;6451.20
55331;DHT22;58851;42.984;20.336;2024-01-30T02:59:54;0.50;6451.20
55331;DHT22;58851;42.984;20.336;2024-01-30T03:02:20;0.40;6451.20
55331;DHT22;58851;42.984;20.336;2024-01-30T03:04:46;0.40;6451.20
55331;DHT22;58851;42.984;20.336;2024-01-30T03:07:12;0.30;6451.20
55331;DHT22;58851;42.984;20.336;2024-01-30T03:09:38;0.20;6451.20
55331;DHT22;58851;42.984;20.336;2024-01-30T03:12:04;0.20;6451.20
55331;DHT22;58851;42.984;20.336;2024-01-30T03:14:31;0.20;6451.20
55331;DHT22;58851;42.984;20.336;2024-01-30T03:16:57;0.10;6451.20
55331;DHT22;58851;42.984;20.336;2024-01-30T03:19:23;0.10;6451.20
55331;DHT22;58851;42.984;20.336;2024-01-30T03:21:49;0.00;6451.20
55331;DHT22;58851;42.984;20.336;2024-01-30T03:24:15;12.90;6451.20
55331;DHT22;58851;42.984;20.336;2024-01-30T03:26:41;12.90;6451.20
55331;DHT22;58851;42.984;20.336;2024-01-30T03:29:07;13.10;6451.20
55331;DHT22;58851;42.984;20.336;2024-01-30T03:31:33;13.10;6451.20
55331;DHT22;58851;42.984;20.336;2024-01-30T03:33:59;13.10;6451.20
55331;DHT22;58851;42.984;20.336;2024-01-30T03:36:24;13.10;6451.20
55331;DHT22;58851;42.984;20.336;2024-01-30T03:38:50;13.10;6451.20
55331;DHT22;58851;42.984;20.336;2024-01-30T03:41:16;13.10;6451.20
55331;DHT22;58851;42.984;20.336;2024-01-30T03:43:42;13.10;6451.20
55331;DHT22;58851;42.984;20.336;2024-01-30T03:46:08;13.10;6451.20
55331;DHT22;58851;42.984;20.336;2024-01-30T03:48:33;13.20;6451.20
55331;DHT22;58851;42.984;20.336;2024-01-30T03:51:00;13.30;6451.20
55331;DHT22;58851;42.984;20.336;2024-01-30T03:53:26;13.50;6451.20
55331;DHT22;58851;42.984;20.336;2024-01-30T03:55:51;13.50;6451.20
55331;DHT22;58851;42.984;20.336;2024-01-30T03:58:17;13.50;6451.20
55331;DHT22;58851;42.984;20.336;2024-01-30T04:00:43;13.70;6451.20
55331;DHT22;58851;42.984;20.336;2024-01-30T04:03:09;13.70;6451.20
55331;DHT22;58851;42.984;20.336;2024-01-30T04:05:34;13.60;6451.20
55331;DHT22;58851;42.984;20.336;2024-01-30T04:08:00;13.70;6451.20
55331;DHT22;58851;42.984;20.336;2024-01-30T04:10:26;38.40;6451.20
55331;DHT22;58851;42.984;20.336;2024-01-30T04:12:52;38.50;6451.20
55331;DHT22;58851;42.984;20.336;2024-01-30T04:15:19;38.50;6451.20
55331;DHT22;58851;42.984;20.336;2024-01-30T04:17:45;38.50;6451.20
55331;DHT22;58851;42.984;20.336;2024-01-30T04:20:14;38.40;6451.20
55331;DHT22;58851;42.984;20.336;2024-01-30T04:22:45;38.50;6451.20
55331;DHT22;58851;42.984;20.336;2024-01-30T04:25:12;38.50;6451.20
55331;DHT22;58851;42.984;20.336;2024-01-30T04:27:38;38.60;6451.20
55331;DHT22;58851;42.984;20.336;2024-01-30T04:30:05;38.70;6451.20
55331;DHT22;58851;42.984;20.336;2024-01-30T04:32:32;38.80;6451.20
55331;DHT22;58851;42.984;20.336;2024-01-30T04:34:58;38.90;6451.20
55331;DHT22;58851;42.984;20.336;2024-01-30T04:37:24;39.10;6451.20
55331;DHT22;58851;42.984;20.336;2024-01-30T04:39:50;39.10;6451.20
55331;DHT22;58851;42.984;20.336;2024-01-30T04:42:17;39.20;6451.20
55331;DHT22;58851;42.984;20.336;2024-01-30T04:44:43;39.20;6451.20
55331;DHT22;58851;42.984;20.336;2024-01-30T04:47:09;39.10;6451.20
55331;DHT22;58851;42.984;20.336;2024-01-30T04:49:36;39.30;6451.20
55331;DHT22;58851;42.984;20.336;2024-01-30T04:52:02;39.30;6451.20
55331;DHT22;58851;42.984;20.336;2024-01-30T04:54:28;39.30;6451.20
55331;DHT22;58851;42.984;20.336;2024-01-30T04:56:54;64.00;6451.20
55331;DHT22;58851;42.984;20.336;2024-01-30T04:59:20;64.10;6451.20
55331;DHT22;58851;42.984;20.336;2024-01-30T05:01:46;64.30;6451.20
55331;DHT22;58851;42.984;20.336;2024-01-30T05:04:12;64.20;6451.20
55331;DHT22;58851;42.984;20.336;2024-01-30T05:06:37;64.20;6451.20
55331;DHT22;58851;42.984;20.336;2024-01-30T05:09:03;64.40;6451.20
55331;DHT22;58851;42.984;20.336;2024-01-30T05:11:30;64.40;6451.20
55331;DHT22;58851;42.984;20.336;2024-01-30T05:13:56;64.40;6451.20
55331;DHT22;58851;42.984;20.336;2024-01-30T05:16:22;64.50;6451.20
55331;DHT22;58851;42.984;20.336;2024-01-30T05:18:48;64.60;6451.20
55331;DHT22;58851;42.984;20.336;2024-01-30T05:21:14;64.70;6451.20
55331;DHT22;58851;42.984;20.336;2024-01-30T05:23:40;64.60;6451.20
55331;DHT22;58851;42.984;20.336;2024-01-30T05:26:08;64.70;6451.20
55331;DHT22;58851;42.984;20.336;2024-01-30T05:28:34;64.70;6451.20
55331;DHT22;58851;42.984;20.336;2024-01-30T05:30:59;64.70;6451.20
55331;DHT22;58851;42.984;20.336;2024-01-30T05:33:25;64.90;6451.20
55331;DHT22;58851;42.984;20.336;2024-01-30T05:35:51;89.60;6451.20
55331;DHT22;58851;42.984;20.336;2024-01-30T05:38:20;64.80;6451.20
55331;DHT22;58851;42.984;20.336;2024-01-30T05:40:46;64.80;6451.20
55331;DHT22;58851;42.984;20.336;2024-01-30T05:43:12;89.60;6451.20
55331;DHT22;58851;42.984;20.336;2024-01-30T05:45:38;89.60;6451.20
55331;DHT22;58851;42.984;20.336;2024-01-30T05:48:04;89.60;6451.20
55331;DHT22;58851;42.984;20.336;2024-01-30T05:50:30;89.70;6425.60
55331;DHT22;58851;42.984;20.336;2024-01-30T05:52:56;89.60;6451.20
55331;DHT22;58851;42.984;20.336;2024-01-30T05:55:22;89.70;6425.60
55331;DHT22;58851;42.984;20.336;2024-01-30T05:57:47;89.70;6425.60
55331;DHT22;58851;42.984;20.336;2024-01-30T06:00:14;89.80;6425.60
55331;DHT22;58851;42.984;20.336;2024-01-30T06:02:40;89.90;6425.60
55331;DHT22;58851;42.984;20.336;2024-01-30T06:05:06;89.90;6425.60
55331;DHT22;58851;42.984;20.336;2024-01-30T06:07:32;89.90;6425.60
55331;DHT22;58851;42.984;20.336;2024-01-30T06:09:57;89.80;6425.60
55331;DHT22;58851;42.984;20.336;2024-01-30T06:12:27;89.60;6451.20
55331;DHT22;58851;42.984;20.336;2024-01-30T06:14:53;64.80;6451.20
55331;DHT22;58851;42.984;20.336;2024-01-30T06:17:22;64.60;6451.20
55331;DHT22;58851;42.984;20.336;2024-01-30T06:19:48;64.40;6451.20
55331;DHT22;58851;42.984;20.336;2024-01-30T06:22:14;64.30;6451.20
55331;DHT22;58851;42.984;20.336;2024-01-30T06:24:40;64.30;6451.20
55331;DHT22;58851;42.984;20.336;2024-01-30T06:27:06;64.30;6451.20
55331;DHT22;58851;42.984;20.336;2024-01-30T06:29:32;64.20;6451.20
55331;DHT22;58851;42.984;20.336;2024-01-30T06:31:58;64.20;6451.20
55331;DHT22;58851;42.984;20.336;2024-01-30T06:34:24;64.20;6451.20
55331;DHT22;58851;42.984;20.336;2024-01-30T06:36:51;64.10;6451.20
55331;DHT22;58851;42.984;20.336;2024-01-30T06:39:17;39.30;6451.20
55331;DHT22;58851;42.984;20.336;2024-01-30T06:41:43;39.20;6451.20
55331;DHT22;58851;42.984;20.336;2024-01-30T06:44:12;39.00;6451.20
55331;DHT22;58851;42.984;20.336;2024-01-30T06:46:38;38.90;6451.20
55331;DHT22;58851;42.984;20.336;2024-01-30T06:49:04;38.90;6451.20
55331;DHT22;58851;42.984;20.336;2024-01-30T06:51:30;39.00;6451.20
55331;DHT22;58851;42.984;20.336;2024-01-30T06:53:56;39.20;6451.20
55331;DHT22;58851;42.984;20.336;2024-01-30T06:56:21;39.10;6451.20
55331;DHT22;58851;42.984;20.336;2024-01-30T06:58:51;39.30;6451.20
55331;DHT22;58851;42.984;20.336;2024-01-30T07:01:17;64.00;6451.20
55331;DHT22;58851;42.984;20.336;2024-01-30T07:03:43;64.00;6451.20
55331;DHT22;58851;42.984;20.336;2024-01-30T07:06:10;64.00;6451.20
55331;DHT22;58851;42.984;20.336;2024-01-30T07:08:39;39.20;6451.20
55331;DHT22;58851;42.984;20.336;2024-01-30T07:11:05;38.90;6451.20
55331;DHT22;58851;42.984;20.336;2024-01-30T07:13:32;38.90;6451.20
55331;DHT22;58851;42.984;20.336;2024-01-30T07:15:58;38.80;6451.20
55331;DHT22;58851;42.984;20.336;2024-01-30T07:18:24;38.50;6451.20
55331;DHT22;58851;42.984;20.336;2024-01-30T07:20:50;13.70;6451.20
55331;DHT22;58851;42.984;20.336;2024-01-30T07:23:17;13.70;6451.20
55331;DHT22;58851;42.984;20.336;2024-01-30T07:25:44;13.70;6451.20
55331;DHT22;58851;42.984;20.336;2024-01-30T07:28:11;13.60;6451.20
55331;DHT22;58851;42.984;20.336;2024-01-30T07:30:39;13.50;6451.20
55331;DHT22;58851;42.984;20.336;2024-01-30T07:33:06;13.50;6451.20
55331;DHT22;58851;42.984;20.336;2024-01-30T07:35:32;13.40;6451.20
55331;DHT22;58851;42.984;20.336;2024-01-30T07:37:58;13.40;6451.20
55331;DHT22;58851;42.984;20.336;2024-01-30T07:40:24;13.50;6451.20
55331;DHT22;58851;42.984;20.336;2024-01-30T07:42:50;13.50;6451.20
55331;DHT22;58851;42.984;20.336;2024-01-30T07:45:16;13.40;6451.20
55331;DHT22;58851;42.984;20.336;2024-01-30T07:47:43;13.10;6451.20
55331;DHT22;58851;42.984;20.336;2024-01-30T07:50:09;12.90;6451.20
55331;DHT22;58851;42.984;20.336;2024-01-30T07:52:35;0.00;6451.20
55331;DHT22;58851;42.984;20.336;2024-01-30T07:55:00;0.20;6451.20
55331;DHT22;58851;42.984;20.336;2024-01-30T07:57:26;0.30;6451.20
55331;DHT22;58851;42.984;20.336;2024-01-30T07:59:52;0.50;6451.20
55331;DHT22;58851;42.984;20.336;2024-01-30T08:02:18;0.60;6451.20
55331;DHT22;58851;42.984;20.336;2024-01-30T08:04:43;0.70;6451.20
55331;DHT22;58851;42.984;20.336;2024-01-30T08:07:14;0.80;6451.20
55331;DHT22;58851;42.984;20.336;2024-01-30T08:09:40;0.90;6451.20
55331;DHT22;58851;42.984;20.336;2024-01-30T08:12:06;25.70;6451.20
55331;DHT22;58851;42.984;20.336;2024-01-30T08:14:31;25.80;6451.20
55331;DHT22;58851;42.984;20.336;2024-01-30T08:16:57;25.90;6451.20
55331;DHT22;58851;42.984;20.336;2024-01-30T08:19:23;26.00;6451.20
55331;DHT22;58851;42.984;20.336;2024-01-30T08:21:49;25.80;6451.20
55331;DHT22;58851;42.984;20.336;2024-01-30T08:24:15;25.70;6451.20
55331;DHT22;58851;42.984;20.336;2024-01-30T08:26:42;26.00;6451.20
55331;DHT22;58851;42.984;20.336;2024-01-30T08:29:08;26.10;6451.20
55331;DHT22;58851;42.984;20.336;2024-01-30T08:31:34;26.20;6451.20
55331;DHT22;58851;42.984;20.336;2024-01-30T08:34:00;26.20;6451.20
55331;DHT22;58851;42.984;20.336;2024-01-30T08:36:25;26.30;6451.20
55331;DHT22;58851;42.984;20.336;2024-01-30T08:38:51;26.50;6451.20
55331;DHT22;58851;42.984;20.336;2024-01-30T08:41:17;26.30;6451.20
55331;DHT22;58851;42.984;20.336;2024-01-30T08:43:43;26.10;6451.20
55331;DHT22;58851;42.984;20.336;2024-01-30T08:46:10;26.20;6451.20
55331;DHT22;58851;42.984;20.336;2024-01-30T08:48:36;26.40;6451.20
55331;DHT22;58851;42.984;20.336;2024-01-30T08:51:17;51.30;6476.80
55331;DHT22;58851;42.984;20.336;2024-01-30T08:53:43;51.20;6476.80
55331;DHT22;58851;42.984;20.336;2024-01-30T08:56:08;51.40;6476.80
55331;DHT22;58851;42.984;20.336;2024-01-30T08:58:34;51.50;6476.80
55331;DHT22;58851;42.984;20.336;2024-01-30T09:01:00;51.60;6476.80
55331;DHT22;58851;42.984;20.336;2024-01-30T09:03:26;51.70;6476.80
55331;DHT22;58851;42.984;20.336;2024-01-30T09:05:53;51.90;6476.80
55331;DHT22;58851;42.984;20.336;2024-01-30T09:08:18;51.70;6476.80
55331;DHT22;58851;42.984;20.336;2024-01-30T09:10:44;51.30;6476.80
55331;DHT22;58851;42.984;20.336;2024-01-30T09:13:10;51.40;6476.80
55331;DHT22;58851;42.984;20.336;2024-01-30T09:15:36;51.40;6476.80
55331;DHT22;58851;42.984;20.336;2024-01-30T09:18:02;51.40;6476.80
55331;DHT22;58851;42.984;20.336;2024-01-30T09:20:27;51.40;6476.80
55331;DHT22;58851;42.984;20.336;2024-01-30T09:22:53;51.40;6476.80
55331;DHT22;58851;42.984;20.336;2024-01-30T09:25:19;51.70;6476.80
55331;DHT22;58851;42.984;20.336;2024-01-30T09:27:46;51.50;6476.80
55331;DHT22;58851;42.984;20.336;2024-01-30T09:30:12;51.40;6476.80
55331;DHT22;58851;42.984;20.336;2024-01-30T09:32:39;51.50;6476.80
55331;DHT22;58851;42.984;20.336;2024-01-30T09:35:05;51.80;6476.80
55331;DHT22;58851;42.984;20.336;2024-01-30T09:37:31;51.90;6476.80
55331;DHT22;58851;42.984;20.336;2024-01-30T09:39:57;52.10;6476.80
55331;DHT22;58851;42.984;20.336;2024-01-30T09:44:58;51.90;6476.80
55331;DHT22;58851;42.984;20.336;2024-01-30T09:47:24;52.00;6476.80
55331;DHT22;58851;42.984;20.336;2024-01-30T09:49:51;52.10;6476.80
55331;DHT22;58851;42.984;20.336;2024-01-30T09:52:16;52.10;6476.80
55331;DHT22;58851;42.984;20.336;2024-01-30T09:54:45;76.80;6476.80
55331;DHT22;58851;42.984;20.336;2024-01-30T09:57:11;52.10;6476.80
55331;DHT22;58851;42.984;20.336;2024-01-30T09:59:37;76.80;6476.80
55331;DHT22;58851;42.984;20.336;2024-01-30T10:02:03;52.10;6476.80
55331;DHT22;58851;42.984;20.336;2024-01-30T10:04:30;76.80;6476.80
55331;DHT22;58851;42.984;20.336;2024-01-30T10:06:56;76.90;6476.80
55331;DHT22;58851;42.984;20.336;2024-01-30T10:09:24;76.90;6476.80
55331;DHT22;58851;42.984;20.336;2024-01-30T10:11:51;76.80;6476.80
55331;DHT22;58851;42.984;20.336;2024-01-30T10:14:17;76.80;6476.80
55331;DHT22;58851;42.984;20.336;2024-01-30T10:16:42;77.10;6476.80
55331;DHT22;58851;42.984;20.336;2024-01-30T10:19:11;77.40;6476.80
55331;DHT22;58851;42.984;20.336;2024-01-30T10:21:36;77.50;6476.80
55331;DHT22;58851;42.984;20.336;2024-01-30T10:24:02;77.70;6476.80
55331;DHT22;58851;42.984;20.336;2024-01-30T10:26:28;77.70;6476.80
55331;DHT22;58851;42.984;20.336;2024-01-30T10:28:55;77.60;6476.80
55331;DHT22;58851;42.984;20.336;2024-01-30T10:31:21;77.60;6476.80
55331;DHT22;58851;42.984;20.336;2024-01-30T10:33:46;102.40;6476.80
55331;DHT22;58851;42.984;20.336;2024-01-30T10:36:14;77.70;6476.80
55331;DHT22;58851;42.984;20.336;2024-01-30T10:38:43;102.40;6476.80
55331;DHT22;58851;42.984;20.336;2024-01-30T10:41:13;102.40;6476.80
55331;DHT22;58851;42.984;20.336;2024-01-30T10:43:41;77.70;6476.80
55331;DHT22;58851;42.984;20.336;2024-01-30T10:46:15;102.40;6476.80
55331;DHT22;58851;42.984;20.336;2024-01-30T10:48:44;102.40;6476.80
55331;DHT22;58851;42.984;20.336;2024-01-30T10:51:14;102.50;6476.80
55331;DHT22;58851;42.984;20.336;2024-01-30T10:53:41;102.70;6476.80
55331;DHT22;58851;42.984;20.336;2024-01-30T10:56:10;102.50;6476.80
55331;DHT22;58851;42.984;20.336;2024-01-30T10:58:37;102.70;6476.80
55331;DHT22;58851;42.984;20.336;2024-01-30T11:01:04;102.40;6476.80
55331;DHT22;58851;42.984;20.336;2024-01-30T11:03:32;102.70;6476.80
55331;DHT22;58851;42.984;20.336;2024-01-30T11:06:00;102.90;6476.80
55331;DHT22;58851;42.984;20.336;2024-01-30T11:08:27;102.90;6476.80
55331;DHT22;58851;42.984;20.336;2024-01-30T11:10:57;103.00;6476.80
55331;DHT22;58851;42.984;20.336;2024-01-30T11:13:27;103.10;6476.80
55331;DHT22;58851;42.984;20.336;2024-01-30T11:15:53;128.10;6502.40
55331;DHT22;58851;42.984;20.336;2024-01-30T11:18:26;128.20;6502.40
55331;DHT22;58851;42.984;20.336;2024-01-30T11:20:55;128.00;6502.40
55331;DHT22;58851;42.984;20.336;2024-01-30T11:23:22;128.00;6502.40
55331;DHT22;58851;42.984;20.336;2024-01-30T11:25:48;128.20;6502.40
55331;DHT22;58851;42.984;20.336;2024-01-30T11:28:15;128.40;6502.40
55331;DHT22;58851;42.984;20.336;2024-01-30T11:30:42;128.80;6502.40
55331;DHT22;58851;42.984;20.336;2024-01-30T11:33:12;128.90;6502.40
55331;DHT22;58851;42.984;20.336;2024-01-30T11:35:40;128.90;6502.40
55331;DHT22;58851;42.984;20.336;2024-01-30T11:38:08;153.80;6502.40
55331;DHT22;58851;42.984;20.336;2024-01-30T11:40:35;154.00;6502.40
55331;DHT22;58851;42.984;20.336;2024-01-30T11:43:02;154.20;6502.40
55331;DHT22;58851;42.984;20.336;2024-01-30T11:45:29;154.20;6502.40
55331;DHT22;58851;42.984;20.336;2024-01-30T11:47:55;154.40;6502.40
55331;DHT22;58851;42.984;20.336;2024-01-30T11:50:21;154.50;6502.40
55331;DHT22;58851;42.984;20.336;2024-01-30T11:52:48;179.20;6502.40
55331;DHT22;58851;42.984;20.336;2024-01-30T11:55:14;179.30;6502.40
55331;DHT22;58851;42.984;20.336;2024-01-30T11:57:41;179.20;6502.40
55331;DHT22;58851;42.984;20.336;2024-01-30T12:00:14;179.40;6502.40
55331;DHT22;58851;42.984;20.336;2024-01-30T12:02:41;179.60;6502.40
55331;DHT22;58851;42.984;20.336;2024-01-30T12:05:08;179.70;6502.40
55331;DHT22;58851;42.984;20.336;2024-01-30T12:07:35;179.80;6502.40
55331;DHT22;58851;42.984;20.336;2024-01-30T12:10:01;179.80;6502.40
55331;DHT22;58851;42.984;20.336;2024-01-30T12:12:28;180.00;6502.40
55331;DHT22;58851;42.984;20.336;2024-01-30T12:14:55;179.90;6502.40
55331;DHT22;58851;42.984;20.336;2024-01-30T12:17:31;179.80;6502.40
55331;DHT22;58851;42.984;20.336;2024-01-30T12:20:11;180.00;6502.40
55331;DHT22;58851;42.984;20.336;2024-01-30T12:22:41;179.90;6502.40
55331;DHT22;58851;42.984;20.336;2024-01-30T12:25:13;180.10;6502.40
55331;DHT22;58851;42.984;20.336;2024-01-30T12:27:40;180.10;6502.40
55331;DHT22;58851;42.984;20.336;2024-01-30T12:30:11;204.80;6502.40
55331;DHT22;58851;42.984;20.336;2024-01-30T12:32:41;180.10;6502.40
55331;DHT22;58851;42.984;20.336;2024-01-30T12:35:14;180.10;6502.40
55331;DHT22;58851;42.984;20.336;2024-01-30T12:37:40;204.80;6502.40
55331;DHT22;58851;42.984;20.336;2024-01-30T12:40:10;204.90;6502.40
55331;DHT22;58851;42.984;20.336;2024-01-30T12:42:38;204.90;6502.40
55331;DHT22;58851;42.984;20.336;2024-01-30T12:45:05;205.00;6502.40
55331;DHT22;58851;42.984;20.336;2024-01-30T12:47:31;205.10;6502.40
55331;DHT22;58851;42.984;20.336;2024-01-30T12:49:58;205.20;6502.40
55331;DHT22;58851;42.984;20.336;2024-01-30T12:52:24;205.30;6502.40
55331;DHT22;58851;42.984;20.336;2024-01-30T12:54:51;205.40;6502.40
55331;DHT22;58851;42.984;20.336;2024-01-30T12:57:17;205.60;6502.40
55331;DHT22;58851;42.984;20.336;2024-01-30T12:59:44;230.40;6502.40
55331;DHT22;58851;42.984;20.336;2024-01-30T13:02:11;230.60;6502.40
55331;DHT22;58851;42.984;20.336;2024-01-30T13:04:37;230.70;6502.40
55331;DHT22;58851;42.984;20.336;2024-01-30T13:07:04;230.60;6502.40
55331;DHT22;58851;42.984;20.336;2024-01-30T13:09:30;230.70;6502.40
55331;DHT22;58851;42.984;20.336;2024-01-30T13:11:57;230.80;6502.40
55331;DHT22;58851;42.984;20.336;2024-01-30T13:14:24;231.20;6502.40
55331;DHT22;58851;42.984;20.336;2024-01-30T13:16:50;231.10;6502.40
55331;DHT22;58851;42.984;20.336;2024-01-30T13:19:16;231.20;6502.40
55331;DHT22;58851;42.984;20.336;2024-01-30T13:21:42;231.20;6502.40
55331;DHT22;58851;42.984;20.336;2024-01-30T13:24:08;231.00;6502.40
55331;DHT22;58851;42.984;20.336;2024-01-30T13:26:35;231.20;6502.40
55331;DHT22;58851;42.984;20.336;2024-01-30T13:29:01;231.10;6502.40
55331;DHT22;58851;42.984;20.336;2024-01-30T13:31:27;256.40;6502.40
55331;DHT22;58851;42.984;20.336;2024-01-30T13:33:54;256.80;6502.40
55331;DHT22;58851;42.984;20.336;2024-01-30T13:36:20;281.80;6528.00
55331;DHT22;58851;42.984;20.336;2024-01-30T13:38:46;282.20;6528.00
55331;DHT22;58851;42.984;20.336;2024-01-30T13:41:12;282.40;6528.00
55331;DHT22;58851;42.984;20.336;2024-01-30T13:43:38;307.20;128.00
55331;DHT22;58851;42.984;20.336;2024-01-30T13:46:04;282.40;6528.00
55331;DHT22;58851;42.984;20.336;2024-01-30T13:48:31;307.20;128.00
55331;DHT22;58851;42.984;20.336;2024-01-30T13:50:57;282.40;6528.00
55331;DHT22;58851;42.984;20.336;2024-01-30T13:53:23;281.90;6528.00
55331;DHT22;58851;42.984;20.336;2024-01-30T13:55:49;282.20;6528.00
55331;DHT22;58851;42.984;20.336;2024-01-30T13:58:15;307.20;128.00
55331;DHT22;58851;42.984;20.336;2024-01-30T14:00:40;282.10;6528.00
55331;DHT22;58851;42.984;20.336;2024-01-30T14:03:06;281.90;6528.00
55331;DHT22;58851;42.984;20.336;2024-01-30T14:05:32;281.70;6528.00
55331;DHT22;58851;42.984;20.336;2024-01-30T14:07:58;281.80;6528.00
55331;DHT22;58851;42.984;20.336;2024-01-30T14:10:25;282.00;6528.00
55331;DHT22;58851;42.984;20.336;2024-01-30T14:12:51;282.10;6528.00
55331;DHT22;58851;42.984;20.336;2024-01-30T14:15:17;282.20;6528.00
55331;DHT22;58851;42.984;20.336;2024-01-30T14:17:44;282.00;6528.00
55331;DHT22;58851;42.984;20.336;2024-01-30T14:20:10;256.80;6502.40
55331;DHT22;58851;42.984;20.336;2024-01-30T14:22:36;281.80;6528.00
55331;DHT22;58851;42.984;20.336;2024-01-30T14:25:03;281.90;6528.00
55331;DHT22;58851;42.984;20.336;2024-01-30T14:27:30;281.60;6528.00
55331;DHT22;58851;42.984;20.336;2024-01-30T14:29:56;256.70;6502.40
55331;DHT22;58851;42.984;20.336;2024-01-30T14:32:22;256.40;6502.40
55331;DHT22;58851;42.984;20.336;2024-01-30T14:34:49;256.20;6502.40
55331;DHT22;58851;42.984;20.336;2024-01-30T14:37:16;231.30;6502.40
55331;DHT22;58851;42.984;20.336;2024-01-30T14:39:42;230.80;6502.40
55331;DHT22;58851;42.984;20.336;2024-01-30T14:42:08;230.60;6502.40
55331;DHT22;58851;42.984;20.336;2024-01-30T14:44:33;205.70;6502.40